メインページ
METAR-TAF:

METAR-TAF

空港 :

仁川国際空港, 大韓民国

緯度: 37-28N, 経度: 126-27E, 海抜: 7m

現時点の気象観測

当レポートは24分前の11:30(UTC)に作成
東/北東の風 7kt
気温 20°C
湿度 21%
気圧 1018 hPa
視程10km以上
1,500メートル以下は雲なし、積乱雲なし

METAR: RKSI 201130Z 07007KT CAVOK 20/M03 Q1018 NOSIG

時間: 20:54 (11:54 UTC)

予報

当レポートは54分前の11:00(UTC)に作成
予報は20日の 12時(UTC)から 21日の 18時(UTC)まで有効
東/北東の風 6kt
視程10km以上
1,500メートル以下は雲なし、積乱雲なし
20日の 23時(UTC)から 20日の 24時(UTC)まで徐々に
南/南東の風 8kt
21日の 05時(UTC)から 21日の 06時(UTC)まで徐々に
西/北西の風 6kt
視程10km以上
高度3000ftの雲は散在している
高度18000ftの千切れ雲あり
21日の 11時(UTC)から 21日の 12時(UTC)まで徐々に
南/南東の風 5kt

TAF: RKSI 201100Z 2012/2118 06006KT CAVOK TN11/2021Z TX23/2105Z BECMG 2023/2024 15008KT BECMG 2105/2106 30006KT 9999 SCT030 BKN180 BECMG 2111/2112 15005KT

4,000以上の空港の気象観測と天気予報(METAR報とTAF報)

利用可能な観測所は地図上に黄色い丸と赤い丸で示す。

丸の上にカーソルを重ねると観測所名を参照できる。

次にクリックすると気象観測と天気予報を参照できる。

マップの切り替え:黒色「×」印の緑ボタンをクリックして拡大、「-」印の緑ボタンをクリックして縮小、緑色の三角印をクリックして隣りの地図に切り替え


METAR-TAF: